Accueil
METAR-TAF:

METAR-TAF

Aéroports :

Aéroport de Norrköping

Norrköping, Suède

latitude: 58-35N, longitude: 016-09E, altitude: 34 m

Observation

Le bulletin a été fait il y a 47 minutes, à 08:50 UTC
Vent 3 kt de direction variable
Température 18°C
Humidité 64%
Pression 1012 hPa
Visibilité 10 km ou plus
pas de nuages en-dessous de 1500 mètres et pas de cumulonimbus.

METAR: ESSP 170850Z VRB03KT CAVOK 18/11 Q1012

Heure: 11:37 (09:37 UTC)

Prévision

Le bulletin a été fait il y a 1 heure et 7 minutes, à 08:30 UTC
Prévision valable du 17 à 09 UTC au 17 à 18 UTC
Vent 6 kt de sud
Visibilité 10 km ou plus
pas de nuages en-dessous de 1500 mètres et pas de cumulonimbus.
Probabilité 40%
du 17 à 10 UTC au 17 à 18 UTC
Nuages épars à une hauteur de 3000 ft, Cumulonimbus.
Probabilité 40%
du 17 à 14 UTC au 17 à 18 UTC
Visibilité: 4000 m
orage, pluie,

TAF: ESSP 170830Z 1709/1718 17006KT CAVOK PROB40 1710/1718 SCT030CB PROB40 1714/1718 4000 TSRA

Observations et prévisions météorologiques de plus de 4000 aéroports (messages METAR et TAF).

Les stations disponibles sont représentées par des disques jaunes et rouges sur la carte.

Passer la souris dessus pour voir le nom de la station.

Cliquer dessus pour voir les observations et prévisions météorologiques.

Pour changer de carte: cliquez sur les boutons verts avec une croix noire pour zoomer, sur le bouton vert avec un tiret pour effectuer un zoom arrière, ou sur les flèches vertes pour les cartes adjacentes.


METAR-TAF: